LQTZ/TZL METAR and TAF weather

Enter ICAO airport designator
Station Type Date Time Source
LQTZ METAR 2021/01/22 05:00 UTC NOAA

LQTZ 220500Z VRB03KT CAVOK 09/04 Q1011


Station Type Date Time Source
LQTZ Decoded METAR 2021/01/22 05:00 UTC NOAA

Tuzla, Bosnia and Herzegovina (LQTZ) 44-33N 018-42E
Jan 22, 2021 - 12:00 AM EST / 2021.01.22 0500 UTC
Wind: Variable at 3 MPH (3 KT):0
Visibility: greater than 7 mile(s):0
Temperature: 48 F (9 C)
Dew Point: 39 F (4 C)
Relative Humidity: 70%
Pressure (altimeter): 29.85 in. Hg (1011 hPa)
ob: LQTZ 220500Z VRB03KT CAVOK 09/04 Q1011
cycle: 5

Station Type Date Time Source
LQTZ TAF 2021/01/22 06:06 UTC NOAA

TAF LQTZ 220500Z 2206/2306 10006KT CAVOK TX16/2214Z TN05/2306Z PROB40
TEMPO 2302/2306 18010KT

Example: see airport list